sensor_id;sensor_type;location;lat;lon;timestamp;temperature;humidity
19908;DHT22;10116;53.112;7.356;2023-04-05T00:01:22;24.00;1.00
19908;DHT22;10116;53.112;7.356;2023-04-05T00:03:50;24.00;1.00
19908;DHT22;10116;53.112;7.356;2023-04-05T00:06:16;24.00;1.00
19908;DHT22;10116;53.112;7.356;2023-04-05T00:08:43;24.00;1.00
19908;DHT22;10116;53.112;7.356;2023-04-05T00:11:16;24.00;1.00
19908;DHT22;10116;53.112;7.356;2023-04-05T00:13:42;23.90;1.00
19908;DHT22;10116;53.112;7.356;2023-04-05T00:16:07;23.90;1.00
19908;DHT22;10116;53.112;7.356;2023-04-05T00:18:33;23.90;1.00
19908;DHT22;10116;53.112;7.356;2023-04-05T00:20:59;23.90;1.00
19908;DHT22;10116;53.112;7.356;2023-04-05T00:23:25;23.90;1.00
19908;DHT22;10116;53.112;7.356;2023-04-05T00:25:51;23.90;1.00
19908;DHT22;10116;53.112;7.356;2023-04-05T00:28:17;23.90;1.00
19908;DHT22;10116;53.112;7.356;2023-04-05T00:30:43;23.90;1.00
19908;DHT22;10116;53.112;7.356;2023-04-05T00:33:08;23.90;1.00
19908;DHT22;10116;53.112;7.356;2023-04-05T00:35:36;24.00;1.00
19908;DHT22;10116;53.112;7.356;2023-04-05T00:38:01;23.90;1.00
19908;DHT22;10116;53.112;7.356;2023-04-05T00:40:27;23.90;1.00
19908;DHT22;10116;53.112;7.356;2023-04-05T00:42:52;23.90;1.00
19908;DHT22;10116;53.112;7.356;2023-04-05T00:45:19;23.90;1.00
19908;DHT22;10116;53.112;7.356;2023-04-05T00:47:45;23.90;1.00
19908;DHT22;10116;53.112;7.356;2023-04-05T00:50:11;23.90;1.00
19908;DHT22;10116;53.112;7.356;2023-04-05T00:52:38;23.90;1.00
19908;DHT22;10116;53.112;7.356;2023-04-05T00:55:06;23.90;1.00
19908;DHT22;10116;53.112;7.356;2023-04-05T00:57:34;23.90;1.00
19908;DHT22;10116;53.112;7.356;2023-04-05T01:00:04;23.90;1.00
19908;DHT22;10116;53.112;7.356;2023-04-05T01:02:50;23.90;1.00
19908;DHT22;10116;53.112;7.356;2023-04-05T01:08:06;23.90;1.00
19908;DHT22;10116;53.112;7.356;2023-04-05T01:10:36;23.90;1.00
19908;DHT22;10116;53.112;7.356;2023-04-05T01:13:04;23.90;1.00
19908;DHT22;10116;53.112;7.356;2023-04-05T01:15:30;23.90;1.00
19908;DHT22;10116;53.112;7.356;2023-04-05T01:17:57;23.90;1.00
19908;DHT22;10116;53.112;7.356;2023-04-05T01:20:27;23.80;1.00
19908;DHT22;10116;53.112;7.356;2023-04-05T01:23:18;23.90;1.00
19908;DHT22;10116;53.112;7.356;2023-04-05T01:31:59;23.90;1.00
19908;DHT22;10116;53.112;7.356;2023-04-05T01:37:06;23.90;1.00
19908;DHT22;10116;53.112;7.356;2023-04-05T01:39:34;23.90;1.00
19908;DHT22;10116;53.112;7.356;2023-04-05T01:42:01;23.90;1.00
19908;DHT22;10116;53.112;7.356;2023-04-05T01:44:27;23.90;1.00
19908;DHT22;10116;53.112;7.356;2023-04-05T01:46:53;23.90;1.00
19908;DHT22;10116;53.112;7.356;2023-04-05T01:49:19;23.90;1.00
19908;DHT22;10116;53.112;7.356;2023-04-05T01:51:45;23.90;1.00
19908;DHT22;10116;53.112;7.356;2023-04-05T01:54:10;23.90;1.00
19908;DHT22;10116;53.112;7.356;2023-04-05T01:56:36;23.90;1.00
19908;DHT22;10116;53.112;7.356;2023-04-05T01:59:02;23.90;1.00
19908;DHT22;10116;53.112;7.356;2023-04-05T02:01:27;23.90;1.00
19908;DHT22;10116;53.112;7.356;2023-04-05T02:03:53;23.90;1.00
19908;DHT22;10116;53.112;7.356;2023-04-05T02:06:18;23.90;1.00
19908;DHT22;10116;53.112;7.356;2023-04-05T02:08:44;23.90;1.00
19908;DHT22;10116;53.112;7.356;2023-04-05T02:11:10;23.90;1.00
19908;DHT22;10116;53.112;7.356;2023-04-05T02:13:35;23.90;1.00
19908;DHT22;10116;53.112;7.356;2023-04-05T02:16:01;23.90;1.00
19908;DHT22;10116;53.112;7.356;2023-04-05T02:18:27;23.90;1.00
19908;DHT22;10116;53.112;7.356;2023-04-05T02:21:07;23.90;1.00
19908;DHT22;10116;53.112;7.356;2023-04-05T02:23:33;23.90;1.00
19908;DHT22;10116;53.112;7.356;2023-04-05T02:25:59;23.90;1.00
19908;DHT22;10116;53.112;7.356;2023-04-05T02:28:25;23.80;1.00
19908;DHT22;10116;53.112;7.356;2023-04-05T02:30:51;23.90;1.00
19908;DHT22;10116;53.112;7.356;2023-04-05T02:33:17;23.80;1.00
19908;DHT22;10116;53.112;7.356;2023-04-05T02:35:42;23.80;1.00
19908;DHT22;10116;53.112;7.356;2023-04-05T02:38:08;23.80;1.00
19908;DHT22;10116;53.112;7.356;2023-04-05T02:40:34;23.80;1.00
19908;DHT22;10116;53.112;7.356;2023-04-05T02:42:59;23.80;1.00
19908;DHT22;10116;53.112;7.356;2023-04-05T02:45:25;23.80;1.00
19908;DHT22;10116;53.112;7.356;2023-04-05T02:47:52;23.80;1.00
19908;DHT22;10116;53.112;7.356;2023-04-05T02:50:18;23.90;1.00
19908;DHT22;10116;53.112;7.356;2023-04-05T02:52:45;23.80;1.00
19908;DHT22;10116;53.112;7.356;2023-04-05T02:55:12;23.80;1.00
19908;DHT22;10116;53.112;7.356;2023-04-05T02:57:38;23.80;1.00
19908;DHT22;10116;53.112;7.356;2023-04-05T03:00:04;23.80;1.00
19908;DHT22;10116;53.112;7.356;2023-04-05T03:02:32;23.80;1.00
19908;DHT22;10116;53.112;7.356;2023-04-05T03:04:58;23.80;1.00
19908;DHT22;10116;53.112;7.356;2023-04-05T03:07:26;23.90;1.00
19908;DHT22;10116;53.112;7.356;2023-04-05T03:09:52;23.80;1.00
19908;DHT22;10116;53.112;7.356;2023-04-05T03:12:18;23.80;1.00
19908;DHT22;10116;53.112;7.356;2023-04-05T03:14:44;23.90;1.00
19908;DHT22;10116;53.112;7.356;2023-04-05T03:17:11;23.80;1.00
19908;DHT22;10116;53.112;7.356;2023-04-05T03:19:37;23.80;1.00
19908;DHT22;10116;53.112;7.356;2023-04-05T03:22:03;23.80;1.00
19908;DHT22;10116;53.112;7.356;2023-04-05T03:24:29;23.80;1.00
19908;DHT22;10116;53.112;7.356;2023-04-05T03:26:55;23.80;1.00
19908;DHT22;10116;53.112;7.356;2023-04-05T03:29:21;23.80;1.00
19908;DHT22;10116;53.112;7.356;2023-04-05T03:31:49;23.90;1.00
19908;DHT22;10116;53.112;7.356;2023-04-05T03:34:15;23.90;1.00
19908;DHT22;10116;53.112;7.356;2023-04-05T03:36:41;24.00;1.00
19908;DHT22;10116;53.112;7.356;2023-04-05T03:39:12;24.10;1.00
19908;DHT22;10116;53.112;7.356;2023-04-05T03:41:39;24.10;1.00
19908;DHT22;10116;53.112;7.356;2023-04-05T03:44:05;24.20;1.00
19908;DHT22;10116;53.112;7.356;2023-04-05T03:46:31;24.20;1.00
19908;DHT22;10116;53.112;7.356;2023-04-05T03:48:58;24.30;1.00
19908;DHT22;10116;53.112;7.356;2023-04-05T03:51:24;24.30;1.00
19908;DHT22;10116;53.112;7.356;2023-04-05T03:53:50;24.30;1.00
19908;DHT22;10116;53.112;7.356;2023-04-05T03:56:16;24.40;1.00
19908;DHT22;10116;53.112;7.356;2023-04-05T03:58:42;24.40;1.00
19908;DHT22;10116;53.112;7.356;2023-04-05T04:01:08;24.40;1.00
19908;DHT22;10116;53.112;7.356;2023-04-05T04:03:33;24.40;1.00
19908;DHT22;10116;53.112;7.356;2023-04-05T04:06:02;24.40;1.00
19908;DHT22;10116;53.112;7.356;2023-04-05T04:08:28;24.40;1.00
19908;DHT22;10116;53.112;7.356;2023-04-05T04:10:53;24.40;1.00
19908;DHT22;10116;53.112;7.356;2023-04-05T04:13:19;24.40;1.00
19908;DHT22;10116;53.112;7.356;2023-04-05T04:15:44;24.40;1.00
19908;DHT22;10116;53.112;7.356;2023-04-05T04:18:11;24.40;1.00
19908;DHT22;10116;53.112;7.356;2023-04-05T04:20:37;24.40;1.00
19908;DHT22;10116;53.112;7.356;2023-04-05T04:23:03;24.40;1.00
19908;DHT22;10116;53.112;7.356;2023-04-05T04:25:30;24.40;1.00
19908;DHT22;10116;53.112;7.356;2023-04-05T04:27:56;24.40;1.00
19908;DHT22;10116;53.112;7.356;2023-04-05T04:30:22;24.40;1.00
19908;DHT22;10116;53.112;7.356;2023-04-05T04:32:49;24.40;1.00
19908;DHT22;10116;53.112;7.356;2023-04-05T04:35:29;24.50;1.00
19908;DHT22;10116;53.112;7.356;2023-04-05T04:37:59;24.50;1.00
19908;DHT22;10116;53.112;7.356;2023-04-05T04:43:07;24.50;1.00
19908;DHT22;10116;53.112;7.356;2023-04-05T04:45:39;24.50;1.00
19908;DHT22;10116;53.112;7.356;2023-04-05T04:48:05;24.50;1.00
19908;DHT22;10116;53.112;7.356;2023-04-05T04:50:32;24.50;1.00
19908;DHT22;10116;53.112;7.356;2023-04-05T04:52:59;24.50;1.00
19908;DHT22;10116;53.112;7.356;2023-04-05T04:55:25;24.50;1.00
19908;DHT22;10116;53.112;7.356;2023-04-05T04:57:52;24.50;1.00
19908;DHT22;10116;53.112;7.356;2023-04-05T05:00:18;24.50;1.00
19908;DHT22;10116;53.112;7.356;2023-04-05T05:02:45;24.50;1.00
19908;DHT22;10116;53.112;7.356;2023-04-05T05:05:11;24.40;1.00
19908;DHT22;10116;53.112;7.356;2023-04-05T05:07:38;24.40;1.00
19908;DHT22;10116;53.112;7.356;2023-04-05T05:10:06;24.40;1.00
19908;DHT22;10116;53.112;7.356;2023-04-05T05:12:33;24.40;1.00
19908;DHT22;10116;53.112;7.356;2023-04-05T05:14:58;24.40;1.00
19908;DHT22;10116;53.112;7.356;2023-04-05T05:17:24;24.40;1.00
19908;DHT22;10116;53.112;7.356;2023-04-05T05:19:50;24.30;1.00
19908;DHT22;10116;53.112;7.356;2023-04-05T05:22:16;24.30;1.00
19908;DHT22;10116;53.112;7.356;2023-04-05T05:24:43;24.40;1.00
19908;DHT22;10116;53.112;7.356;2023-04-05T05:27:09;24.40;1.00
19908;DHT22;10116;53.112;7.356;2023-04-05T05:29:35;23.50;1.00
19908;DHT22;10116;53.112;7.356;2023-04-05T05:32:00;23.40;1.00
19908;DHT22;10116;53.112;7.356;2023-04-05T05:34:26;23.50;1.00
19908;DHT22;10116;53.112;7.356;2023-04-05T05:36:53;23.50;1.00
19908;DHT22;10116;53.112;7.356;2023-04-05T05:39:19;23.50;1.00
19908;DHT22;10116;53.112;7.356;2023-04-05T05:41:45;23.60;1.00
19908;DHT22;10116;53.112;7.356;2023-04-05T05:44:11;23.70;1.00
19908;DHT22;10116;53.112;7.356;2023-04-05T05:46:37;23.70;1.00
19908;DHT22;10116;53.112;7.356;2023-04-05T05:49:03;23.80;1.00
19908;DHT22;10116;53.112;7.356;2023-04-05T05:51:29;23.90;1.00
19908;DHT22;10116;53.112;7.356;2023-04-05T05:53:56;23.90;1.00
19908;DHT22;10116;53.112;7.356;2023-04-05T05:56:22;23.90;1.00
19908;DHT22;10116;53.112;7.356;2023-04-05T05:58:47;24.00;1.00
19908;DHT22;10116;53.112;7.356;2023-04-05T06:01:13;24.10;1.00
19908;DHT22;10116;53.112;7.356;2023-04-05T06:03:39;24.10;1.00
19908;DHT22;10116;53.112;7.356;2023-04-05T06:06:05;24.10;1.00
19908;DHT22;10116;53.112;7.356;2023-04-05T06:08:33;24.20;1.00
19908;DHT22;10116;53.112;7.356;2023-04-05T06:10:59;24.20;1.00
19908;DHT22;10116;53.112;7.356;2023-04-05T06:13:25;24.30;1.00
19908;DHT22;10116;53.112;7.356;2023-04-05T06:15:50;24.30;1.00
19908;DHT22;10116;53.112;7.356;2023-04-05T06:18:16;24.30;1.00
19908;DHT22;10116;53.112;7.356;2023-04-05T06:20:42;24.40;1.00
19908;DHT22;10116;53.112;7.356;2023-04-05T06:23:12;24.40;1.00
19908;DHT22;10116;53.112;7.356;2023-04-05T06:25:38;24.40;1.00
19908;DHT22;10116;53.112;7.356;2023-04-05T06:28:05;24.50;1.00
19908;DHT22;10116;53.112;7.356;2023-04-05T06:30:32;24.60;1.00
19908;DHT22;10116;53.112;7.356;2023-04-05T06:32:58;24.60;1.00
19908;DHT22;10116;53.112;7.356;2023-04-05T06:35:25;24.70;1.00
19908;DHT22;10116;53.112;7.356;2023-04-05T06:37:51;24.70;1.00
19908;DHT22;10116;53.112;7.356;2023-04-05T06:40:17;24.70;1.00
19908;DHT22;10116;53.112;7.356;2023-04-05T06:42:43;24.70;1.00
19908;DHT22;10116;53.112;7.356;2023-04-05T06:45:09;24.70;1.00
19908;DHT22;10116;53.112;7.356;2023-04-05T06:47:37;24.70;1.00
19908;DHT22;10116;53.112;7.356;2023-04-05T06:50:04;24.80;1.00
19908;DHT22;10116;53.112;7.356;2023-04-05T06:52:31;24.80;1.00
19908;DHT22;10116;53.112;7.356;2023-04-05T06:54:56;24.70;1.00
19908;DHT22;10116;53.112;7.356;2023-04-05T06:57:22;24.70;1.00
19908;DHT22;10116;53.112;7.356;2023-04-05T06:59:47;24.70;1.00
19908;DHT22;10116;53.112;7.356;2023-04-05T07:02:13;24.70;1.00
19908;DHT22;10116;53.112;7.356;2023-04-05T07:04:39;24.70;1.00
19908;DHT22;10116;53.112;7.356;2023-04-05T07:07:05;24.70;1.00
19908;DHT22;10116;53.112;7.356;2023-04-05T07:09:32;24.60;1.00
19908;DHT22;10116;53.112;7.356;2023-04-05T07:11:58;24.60;1.00
19908;DHT22;10116;53.112;7.356;2023-04-05T07:14:24;24.60;1.00
19908;DHT22;10116;53.112;7.356;2023-04-05T07:16:50;24.60;1.00
19908;DHT22;10116;53.112;7.356;2023-04-05T07:19:17;24.60;1.00
19908;DHT22;10116;53.112;7.356;2023-04-05T07:21:43;24.60;1.00
19908;DHT22;10116;53.112;7.356;2023-04-05T07:24:08;24.60;1.00
19908;DHT22;10116;53.112;7.356;2023-04-05T07:26:35;24.60;1.00
19908;DHT22;10116;53.112;7.356;2023-04-05T07:29:02;24.70;1.00
19908;DHT22;10116;53.112;7.356;2023-04-05T07:31:28;24.70;1.00
19908;DHT22;10116;53.112;7.356;2023-04-05T07:33:54;24.70;1.00
19908;DHT22;10116;53.112;7.356;2023-04-05T07:36:20;24.70;1.00
19908;DHT22;10116;53.112;7.356;2023-04-05T07:38:45;24.70;1.00
19908;DHT22;10116;53.112;7.356;2023-04-05T07:41:11;24.70;1.00
19908;DHT22;10116;53.112;7.356;2023-04-05T07:43:37;24.70;1.00
19908;DHT22;10116;53.112;7.356;2023-04-05T07:46:03;24.60;1.00
19908;DHT22;10116;53.112;7.356;2023-04-05T07:48:29;24.60;1.00
19908;DHT22;10116;53.112;7.356;2023-04-05T07:50:55;24.60;1.00
19908;DHT22;10116;53.112;7.356;2023-04-05T07:53:21;24.60;1.00
19908;DHT22;10116;53.112;7.356;2023-04-05T07:55:46;24.60;1.00
19908;DHT22;10116;53.112;7.356;2023-04-05T07:58:12;24.60;1.00
19908;DHT22;10116;53.112;7.356;2023-04-05T08:00:38;24.60;1.00
19908;DHT22;10116;53.112;7.356;2023-04-05T08:03:04;24.60;1.00
19908;DHT22;10116;53.112;7.356;2023-04-05T08:05:30;24.50;1.00
19908;DHT22;10116;53.112;7.356;2023-04-05T08:07:55;24.50;1.00
19908;DHT22;10116;53.112;7.356;2023-04-05T08:10:23;24.50;1.00
19908;DHT22;10116;53.112;7.356;2023-04-05T08:12:48;24.50;1.00
19908;DHT22;10116;53.112;7.356;2023-04-05T08:15:14;24.50;1.00
19908;DHT22;10116;53.112;7.356;2023-04-05T08:17:40;24.50;1.00
19908;DHT22;10116;53.112;7.356;2023-04-05T08:20:06;24.50;1.00
19908;DHT22;10116;53.112;7.356;2023-04-05T08:22:32;24.50;1.00
19908;DHT22;10116;53.112;7.356;2023-04-05T08:24:57;24.50;1.00
19908;DHT22;10116;53.112;7.356;2023-04-05T08:27:23;24.50;1.00
19908;DHT22;10116;53.112;7.356;2023-04-05T08:29:49;24.40;1.00
19908;DHT22;10116;53.112;7.356;2023-04-05T08:32:14;24.40;1.00
19908;DHT22;10116;53.112;7.356;2023-04-05T08:34:40;24.40;1.00
19908;DHT22;10116;53.112;7.356;2023-04-05T08:37:05;24.40;1.00
19908;DHT22;10116;53.112;7.356;2023-04-05T08:39:34;24.40;1.00
19908;DHT22;10116;53.112;7.356;2023-04-05T08:42:07;24.40;1.00
19908;DHT22;10116;53.112;7.356;2023-04-05T08:44:36;24.40;1.00
19908;DHT22;10116;53.112;7.356;2023-04-05T08:47:04;24.40;1.00
19908;DHT22;10116;53.112;7.356;2023-04-05T08:49:30;24.40;1.00
19908;DHT22;10116;53.112;7.356;2023-04-05T08:51:57;24.30;1.00
19908;DHT22;10116;53.112;7.356;2023-04-05T08:54:24;24.30;1.00
19908;DHT22;10116;53.112;7.356;2023-04-05T08:56:51;24.30;1.00
19908;DHT22;10116;53.112;7.356;2023-04-05T08:59:19;24.30;1.00
19908;DHT22;10116;53.112;7.356;2023-04-05T09:01:45;24.30;1.00
19908;DHT22;10116;53.112;7.356;2023-04-05T09:06:43;24.30;1.00
19908;DHT22;10116;53.112;7.356;2023-04-05T09:09:09;24.30;1.00
19908;DHT22;10116;53.112;7.356;2023-04-05T09:11:35;24.30;1.00
19908;DHT22;10116;53.112;7.356;2023-04-05T09:14:06;24.30;1.00
19908;DHT22;10116;53.112;7.356;2023-04-05T09:16:37;24.30;1.00
19908;DHT22;10116;53.112;7.356;2023-04-05T09:19:03;24.20;1.00
19908;DHT22;10116;53.112;7.356;2023-04-05T09:21:29;24.20;1.00
19908;DHT22;10116;53.112;7.356;2023-04-05T09:23:54;24.20;1.00
19908;DHT22;10116;53.112;7.356;2023-04-05T09:26:24;24.20;1.00
19908;DHT22;10116;53.112;7.356;2023-04-05T09:28:51;24.20;1.00
19908;DHT22;10116;53.112;7.356;2023-04-05T09:31:34;24.20;1.00
19908;DHT22;10116;53.112;7.356;2023-04-05T09:34:03;24.20;1.00
19908;DHT22;10116;53.112;7.356;2023-04-05T09:36:33;24.20;1.00
19908;DHT22;10116;53.112;7.356;2023-04-05T09:39:05;24.20;1.00
19908;DHT22;10116;53.112;7.356;2023-04-05T09:41:32;24.20;1.00
19908;DHT22;10116;53.112;7.356;2023-04-05T09:43:58;24.10;1.00
19908;DHT22;10116;53.112;7.356;2023-04-05T09:46:34;24.10;1.00
19908;DHT22;10116;53.112;7.356;2023-04-05T09:49:02;24.10;1.00
19908;DHT22;10116;53.112;7.356;2023-04-05T09:51:33;24.10;1.00
19908;DHT22;10116;53.112;7.356;2023-04-05T09:54:09;24.10;1.00
19908;DHT22;10116;53.112;7.356;2023-04-05T09:56:40;24.00;1.00
19908;DHT22;10116;53.112;7.356;2023-04-05T09:59:08;24.00;1.00
19908;DHT22;10116;53.112;7.356;2023-04-05T10:01:39;24.00;1.00
19908;DHT22;10116;53.112;7.356;2023-04-05T10:04:07;24.00;1.00
19908;DHT22;10116;53.112;7.356;2023-04-05T10:06:38;24.10;1.00
19908;DHT22;10116;53.112;7.356;2023-04-05T10:09:04;24.20;1.00
19908;DHT22;10116;53.112;7.356;2023-04-05T10:11:32;24.20;1.00
19908;DHT22;10116;53.112;7.356;2023-04-05T10:14:00;24.30;1.00
19908;DHT22;10116;53.112;7.356;2023-04-05T10:16:31;24.30;1.00
19908;DHT22;10116;53.112;7.356;2023-04-05T10:18:58;24.30;1.00
19908;DHT22;10116;53.112;7.356;2023-04-05T10:21:33;24.40;1.00
19908;DHT22;10116;53.112;7.356;2023-04-05T10:24:37;24.40;1.00
19908;DHT22;10116;53.112;7.356;2023-04-05T10:27:10;24.40;1.00
19908;DHT22;10116;53.112;7.356;2023-04-05T10:30:06;24.40;1.00
19908;DHT22;10116;53.112;7.356;2023-04-05T10:35:16;24.40;1.00
19908;DHT22;10116;53.112;7.356;2023-04-05T10:40:21;24.40;1.00
19908;DHT22;10116;53.112;7.356;2023-04-05T10:42:47;24.40;1.00
19908;DHT22;10116;53.112;7.356;2023-04-05T10:45:16;24.40;1.00
19908;DHT22;10116;53.112;7.356;2023-04-05T10:48:15;24.40;1.00
19908;DHT22;10116;53.112;7.356;2023-04-05T10:50:42;24.40;1.00
19908;DHT22;10116;53.112;7.356;2023-04-05T10:53:08;24.40;1.00
19908;DHT22;10116;53.112;7.356;2023-04-05T10:55:35;24.40;1.00
19908;DHT22;10116;53.112;7.356;2023-04-05T10:58:01;24.50;1.00
19908;DHT22;10116;53.112;7.356;2023-04-05T11:00:28;24.50;1.00
19908;DHT22;10116;53.112;7.356;2023-04-05T11:02:54;24.50;1.00
19908;DHT22;10116;53.112;7.356;2023-04-05T11:05:35;24.50;1.00
19908;DHT22;10116;53.112;7.356;2023-04-05T11:08:06;24.60;1.00
19908;DHT22;10116;53.112;7.356;2023-04-05T11:10:37;24.60;1.00
19908;DHT22;10116;53.112;7.356;2023-04-05T11:13:04;24.60;1.00
19908;DHT22;10116;53.112;7.356;2023-04-05T11:15:31;24.60;1.00
19908;DHT22;10116;53.112;7.356;2023-04-05T11:20:50;24.60;1.00
19908;DHT22;10116;53.112;7.356;2023-04-05T11:23:19;24.60;1.00
19908;DHT22;10116;53.112;7.356;2023-04-05T11:28:34;24.60;1.00
19908;DHT22;10116;53.112;7.356;2023-04-05T11:31:20;24.60;1.00
19908;DHT22;10116;53.112;7.356;2023-04-05T11:36:12;24.50;1.00
19908;DHT22;10116;53.112;7.356;2023-04-05T11:38:42;24.50;1.00
19908;DHT22;10116;53.112;7.356;2023-04-05T11:41:12;24.50;1.00
19908;DHT22;10116;53.112;7.356;2023-04-05T11:43:45;24.50;1.00
19908;DHT22;10116;53.112;7.356;2023-04-05T11:46:15;24.50;1.00
19908;DHT22;10116;53.112;7.356;2023-04-05T11:48:41;24.50;1.00
19908;DHT22;10116;53.112;7.356;2023-04-05T11:51:08;24.60;1.00
19908;DHT22;10116;53.112;7.356;2023-04-05T11:53:35;24.60;1.00
19908;DHT22;10116;53.112;7.356;2023-04-05T11:56:09;24.60;1.00
19908;DHT22;10116;53.112;7.356;2023-04-05T11:58:37;24.70;1.00
19908;DHT22;10116;53.112;7.356;2023-04-05T12:01:04;24.70;1.00
19908;DHT22;10116;53.112;7.356;2023-04-05T12:03:34;24.80;1.00
19908;DHT22;10116;53.112;7.356;2023-04-05T12:06:02;24.80;1.00
19908;DHT22;10116;53.112;7.356;2023-04-05T12:08:44;24.80;1.00
19908;DHT22;10116;53.112;7.356;2023-04-05T12:11:28;24.80;1.00
19908;DHT22;10116;53.112;7.356;2023-04-05T12:13:57;24.70;1.00
19908;DHT22;10116;53.112;7.356;2023-04-05T12:16:23;24.80;1.00
19908;DHT22;10116;53.112;7.356;2023-04-05T12:18:53;24.80;1.00
19908;DHT22;10116;53.112;7.356;2023-04-05T12:21:19;24.80;1.00
19908;DHT22;10116;53.112;7.356;2023-04-05T12:23:45;24.80;1.00
19908;DHT22;10116;53.112;7.356;2023-04-05T12:26:11;24.70;1.00
19908;DHT22;10116;53.112;7.356;2023-04-05T12:31:17;24.70;1.00
19908;DHT22;10116;53.112;7.356;2023-04-05T12:33:43;24.70;1.00
19908;DHT22;10116;53.112;7.356;2023-04-05T12:36:08;24.70;1.00
19908;DHT22;10116;53.112;7.356;2023-04-05T12:38:36;24.70;1.00
19908;DHT22;10116;53.112;7.356;2023-04-05T12:41:03;24.60;1.00
19908;DHT22;10116;53.112;7.356;2023-04-05T12:43:42;24.60;1.00
19908;DHT22;10116;53.112;7.356;2023-04-05T12:46:16;24.60;1.00
19908;DHT22;10116;53.112;7.356;2023-04-05T12:48:42;24.60;1.00
19908;DHT22;10116;53.112;7.356;2023-04-05T12:51:17;24.60;1.00
19908;DHT22;10116;53.112;7.356;2023-04-05T12:53:46;24.60;1.00
19908;DHT22;10116;53.112;7.356;2023-04-05T12:56:15;24.60;1.00
19908;DHT22;10116;53.112;7.356;2023-04-05T12:58:41;24.60;1.00
19908;DHT22;10116;53.112;7.356;2023-04-05T13:01:06;24.60;1.00
19908;DHT22;10116;53.112;7.356;2023-04-05T13:03:32;24.60;1.00
19908;DHT22;10116;53.112;7.356;2023-04-05T13:05:58;24.60;1.00
19908;DHT22;10116;53.112;7.356;2023-04-05T13:08:24;24.60;1.00
19908;DHT22;10116;53.112;7.356;2023-04-05T13:10:51;24.60;1.00
19908;DHT22;10116;53.112;7.356;2023-04-05T13:13:17;24.60;1.00
19908;DHT22;10116;53.112;7.356;2023-04-05T13:15:44;24.60;1.00
19908;DHT22;10116;53.112;7.356;2023-04-05T13:18:10;24.60;1.00
19908;DHT22;10116;53.112;7.356;2023-04-05T13:20:39;24.60;1.00
19908;DHT22;10116;53.112;7.356;2023-04-05T13:23:06;24.70;1.00
19908;DHT22;10116;53.112;7.356;2023-04-05T13:25:35;24.70;1.00
19908;DHT22;10116;53.112;7.356;2023-04-05T13:28:01;24.80;1.00
19908;DHT22;10116;53.112;7.356;2023-04-05T13:30:27;24.80;1.00
19908;DHT22;10116;53.112;7.356;2023-04-05T13:32:52;24.80;1.00
19908;DHT22;10116;53.112;7.356;2023-04-05T13:35:18;24.80;1.00
19908;DHT22;10116;53.112;7.356;2023-04-05T13:37:43;24.80;1.00
19908;DHT22;10116;53.112;7.356;2023-04-05T13:40:09;24.80;1.00
19908;DHT22;10116;53.112;7.356;2023-04-05T13:42:35;24.80;1.00
19908;DHT22;10116;53.112;7.356;2023-04-05T13:45:01;24.80;1.00
19908;DHT22;10116;53.112;7.356;2023-04-05T13:47:27;24.80;1.00
19908;DHT22;10116;53.112;7.356;2023-04-05T13:49:52;24.80;1.00
19908;DHT22;10116;53.112;7.356;2023-04-05T13:52:18;24.80;1.00
19908;DHT22;10116;53.112;7.356;2023-04-05T13:54:43;24.50;1.00
19908;DHT22;10116;53.112;7.356;2023-04-05T13:57:09;24.40;1.00
19908;DHT22;10116;53.112;7.356;2023-04-05T13:59:35;24.40;1.00
19908;DHT22;10116;53.112;7.356;2023-04-05T14:02:01;24.40;1.00
19908;DHT22;10116;53.112;7.356;2023-04-05T14:04:27;24.40;1.00
19908;DHT22;10116;53.112;7.356;2023-04-05T14:06:53;24.40;1.00
19908;DHT22;10116;53.112;7.356;2023-04-05T14:09:18;24.40;1.00
19908;DHT22;10116;53.112;7.356;2023-04-05T14:11:44;24.50;1.00
19908;DHT22;10116;53.112;7.356;2023-04-05T14:14:10;24.50;1.00
19908;DHT22;10116;53.112;7.356;2023-04-05T14:16:35;24.50;1.00
19908;DHT22;10116;53.112;7.356;2023-04-05T14:19:03;24.50;1.00
19908;DHT22;10116;53.112;7.356;2023-04-05T14:21:28;24.60;1.00
19908;DHT22;10116;53.112;7.356;2023-04-05T14:23:54;24.60;1.00
19908;DHT22;10116;53.112;7.356;2023-04-05T14:26:26;24.60;1.00
19908;DHT22;10116;53.112;7.356;2023-04-05T14:28:52;24.70;1.00
19908;DHT22;10116;53.112;7.356;2023-04-05T14:31:18;24.70;1.00
19908;DHT22;10116;53.112;7.356;2023-04-05T14:33:44;24.70;1.00
19908;DHT22;10116;53.112;7.356;2023-04-05T14:36:09;24.70;1.00
19908;DHT22;10116;53.112;7.356;2023-04-05T14:38:35;24.70;1.00
19908;DHT22;10116;53.112;7.356;2023-04-05T14:41:01;24.70;1.00
19908;DHT22;10116;53.112;7.356;2023-04-05T14:43:26;24.70;1.00
19908;DHT22;10116;53.112;7.356;2023-04-05T14:45:52;24.70;1.00
19908;DHT22;10116;53.112;7.356;2023-04-05T14:48:18;24.70;1.00
19908;DHT22;10116;53.112;7.356;2023-04-05T14:50:43;24.70;1.00
19908;DHT22;10116;53.112;7.356;2023-04-05T14:53:09;24.70;1.00
19908;DHT22;10116;53.112;7.356;2023-04-05T14:55:34;24.70;1.00
19908;DHT22;10116;53.112;7.356;2023-04-05T14:58:00;24.70;1.00
19908;DHT22;10116;53.112;7.356;2023-04-05T15:00:26;24.70;1.00
19908;DHT22;10116;53.112;7.356;2023-04-05T15:02:51;24.80;1.00
19908;DHT22;10116;53.112;7.356;2023-04-05T15:05:17;24.80;1.00
19908;DHT22;10116;53.112;7.356;2023-04-05T15:07:43;24.80;1.00
19908;DHT22;10116;53.112;7.356;2023-04-05T15:10:09;24.70;1.00
19908;DHT22;10116;53.112;7.356;2023-04-05T15:12:35;24.70;1.00
19908;DHT22;10116;53.112;7.356;2023-04-05T15:15:00;24.70;1.00
19908;DHT22;10116;53.112;7.356;2023-04-05T15:17:26;24.70;1.00
19908;DHT22;10116;53.112;7.356;2023-04-05T15:19:52;24.80;1.00
19908;DHT22;10116;53.112;7.356;2023-04-05T15:22:18;24.80;1.00
19908;DHT22;10116;53.112;7.356;2023-04-05T15:24:45;24.80;1.00
19908;DHT22;10116;53.112;7.356;2023-04-05T15:27:10;24.80;1.00
19908;DHT22;10116;53.112;7.356;2023-04-05T15:29:36;24.80;1.00
19908;DHT22;10116;53.112;7.356;2023-04-05T15:32:02;24.90;1.00
19908;DHT22;10116;53.112;7.356;2023-04-05T15:34:29;24.90;1.00
19908;DHT22;10116;53.112;7.356;2023-04-05T15:36:55;24.90;1.00
19908;DHT22;10116;53.112;7.356;2023-04-05T15:39:21;24.90;1.00
19908;DHT22;10116;53.112;7.356;2023-04-05T15:41:47;24.80;1.00
19908;DHT22;10116;53.112;7.356;2023-04-05T15:44:13;24.80;1.00
19908;DHT22;10116;53.112;7.356;2023-04-05T15:46:39;24.80;1.00
19908;DHT22;10116;53.112;7.356;2023-04-05T15:49:05;24.80;1.00
19908;DHT22;10116;53.112;7.356;2023-04-05T15:51:32;24.80;1.00
19908;DHT22;10116;53.112;7.356;2023-04-05T15:53:58;24.80;1.00
19908;DHT22;10116;53.112;7.356;2023-04-05T15:56:24;24.70;1.00
19908;DHT22;10116;53.112;7.356;2023-04-05T15:58:49;24.70;1.00
19908;DHT22;10116;53.112;7.356;2023-04-05T16:01:15;24.70;1.00
19908;DHT22;10116;53.112;7.356;2023-04-05T16:03:41;24.70;1.00
19908;DHT22;10116;53.112;7.356;2023-04-05T16:06:07;24.60;1.00
19908;DHT22;10116;53.112;7.356;2023-04-05T16:08:33;24.60;1.00
19908;DHT22;10116;53.112;7.356;2023-04-05T16:10:58;24.60;1.00
19908;DHT22;10116;53.112;7.356;2023-04-05T16:13:24;24.60;1.00
19908;DHT22;10116;53.112;7.356;2023-04-05T16:15:50;24.60;1.00
19908;DHT22;10116;53.112;7.356;2023-04-05T16:18:15;24.60;1.00